General Aviation Weather

Text Reports

Enter one or more of the following location identifiers separated by a space:

Zip Code, Four-Character ICAO or Three-Character IATA airport codes.

METAR - Aviation Routine Weather Report
KNEL - Lakehurst NAS, New Jersey
Updated at 7:00 PM GMT on July 17, 2014 (3:00 PM EDT):
METAR KNEL 171900Z AUTO 30005KT SCT055 SCT080 BKN100 27/13 A2999 RMK AO2 SLP153 T02720128 $
TAF - Terminal Area Forecast
KNEL - Lakehurst NAS, New Jersey
Updated at 7:00 PM GMT on July 17, 2014 (3:00 PM EDT):
No TAF is currently available for this location.
Decoded:
No decoded TAF is available.
PIREP - Pilot Weather Report
KNEL - Lakehurst NAS, New Jersey
Updated at 7:00 PM GMT on July 17, 2014 (3:00 PM EDT):
No PIREP is currently available for this location.
AIRMET - Airmens Meteorological Information
KNEL - Lakehurst NAS, New Jersey
Updated at 7:00 PM GMT on July 17, 2014 (3:00 PM EDT):
No AIRMET is currently available for this location.
SIGMET - Significant Meteorological Information
KNEL - Lakehurst NAS, New Jersey
Updated at 7:00 PM GMT on July 17, 2014 (3:00 PM EDT):
No SIGMET is currently available for this location.
NOTAM - Notice to Airmen
KNEL - Lakehurst NAS, New Jersey
Updated at 7:00 PM GMT on July 17, 2014 (3:00 PM EDT):
No NOTAM is currently available for this location.
Forecast Area
KNEL - Lakehurst NAS, New Jersey
Updated at 7:00 PM GMT on July 17, 2014 (3:00 PM EDT):
No NOTAM is currently available for this location.
Aviation Weather Maps